Time;durP1;ratioP1;P1;durP2;ratioP2;P2;SDS_P1;SDS_P2;PMS_P1;PMS_P2;Temp;Humidity;BMP_temperature;BMP_pressure;BME280_temperature;BME280_humidity;BME280_pressure;Samples;Min_cycle;Max_cycle;Signal;HPM_P1;HPM_P2
2023/01/13 00:00:21;;;;;;;;;;;;;;;;;;1048039;28;19916;-76
2023/01/13 00:00:52;;;;;;;;;;;;;;;;;;1048217;28;20427;-75
2023/01/13 00:01:23;;;;;;;;;;;;;;;;;;1043472;28;20438;-76
2023/01/13 00:01:54;;;;;;;;;;;;;;;;;;1043739;28;20012;-76
2023/01/13 00:02:24;;;;;;;;;;;;;;;;;;1039443;28;19927;-77
2023/01/13 00:02:55;;;;;;;;;;;;;;;;;;1035682;28;19941;-76
2023/01/13 00:03:26;;;;;;;;;;;;;;;;;;1039432;28;19917;-76
2023/01/13 00:03:57;;;;;;;;;;;;;;;;;;1035685;28;20400;-76
2023/01/13 00:04:28;;;;;;;;;;;;;;;;;;1035557;28;19983;-76
2023/01/13 00:04:59;;;;;;;;;;;;;;;;;;1039368;28;19913;-76
2023/01/13 00:05:30;;;;;;;;;;;;;;;;;;1039755;28;20013;-76
2023/01/13 00:06:01;;;;;;;;;;;;;;;;;;1043674;28;20487;-76
2023/01/13 00:06:32;;;;;;;;;;;;;;;;;;1047864;28;20422;-76
2023/01/13 00:07:02;;;;;;;;;;;;;;;;;;1043506;28;19913;-76
2023/01/13 00:07:33;;;;;;;;;;;;;;;;;;1043644;28;20015;-77
2023/01/13 00:08:05;;;;;;;;;;;;;;;;;;1043646;28;20391;-76
2023/01/13 00:08:39;;;;;;;;;;;;;;;;;;1043252;28;19932;-77
2023/01/13 00:09:09;;;;;;;;;;;;;;;;;;1043644;28;19913;-77
2023/01/13 00:09:40;;;;;;;;;;;;;;;;;;1043620;28;19909;-77
2023/01/13 00:10:11;;;;;;;;;;;;;;;;;;1044193;28;19920;-75
2023/01/13 00:10:42;;;;;;;;;;;;;;;;;;1043332;28;20003;-76
2023/01/13 00:11:13;;;;;;;;;;;;;;;;;;1043606;28;19919;-76
2023/01/13 00:11:44;;;;;;;;;;;;;;;;;;1043327;28;20368;-77
2023/01/13 00:12:15;;;;;;;;;;;;;;;;;;1043729;28;19940;-76
2023/01/13 00:12:46;;;;;;;;;;;;;;;;;;1043700;28;20625;-76
2023/01/13 00:13:25;;;;;;;;;;;;;;;;;;1043621;28;20620;-76
2023/01/13 00:13:56;;;;;;;;;;;;;;;;;;1040663;28;19948;-76
2023/01/13 00:14:28;;;;;;;;;;;;;;;;;;1043839;28;19935;-76
2023/01/13 00:14:59;;;;;;;;;;;;;;;;;;1043298;28;19966;-76
2023/01/13 00:15:30;;;;;;;;;;;;;;;;;;1043823;28;19963;-76
2023/01/13 00:16:01;;;;;;;;;;;;;;;;;;1043385;28;20343;-77
2023/01/13 00:16:32;;;;;;;;;;;;;;;;;;1043719;28;19916;-77
2023/01/13 00:17:03;;;;;;;;;;;;;;;;;;1046188;28;19916;-76
2023/01/13 00:17:34;;;;;;;;;;;;;;;;;;1045794;28;20008;-77
2023/01/13 00:18:05;;;;;;;;;;;;;;;;;;1040864;28;19913;-76
2023/01/13 00:18:35;;;;;;;;;;;;;;;;;;1043815;28;20685;-77
2023/01/13 00:19:06;;;;;;;;;;;;;;;;;;1044310;28;20011;-76
2023/01/13 00:19:40;;;;;;;;;;;;;;;;;;1043866;28;19913;-76
2023/01/13 00:20:11;;;;;;;;;;;;;;;;;;1047945;28;19912;-76
2023/01/13 00:20:42;;;;;;;;;;;;;;;;;;1048159;28;19948;-77
2023/01/13 00:21:13;;;;;;;;;;;;;;;;;;1048107;28;20003;-76
2023/01/13 00:21:44;;;;;;;;;;;;;;;;;;1043323;28;20014;-76
2023/01/13 00:22:15;;;;;;;;;;;;;;;;;;1039641;28;20425;-77
2023/01/13 00:22:45;;;;;;;;;;;;;;;;;;1039616;28;19909;-77
2023/01/13 00:23:16;;;;;;;;;;;;;;;;;;1039763;28;19921;-76
2023/01/13 00:23:47;;;;;;;;;;;;;;;;;;1043794;28;19947;-76
2023/01/13 00:24:18;;;;;;;;;;;;;;;;;;1043545;28;19909;-76
2023/01/13 00:24:49;;;;;;;;;;;;;;;;;;1043422;28;20503;-76
2023/01/13 00:25:20;;;;;;;;;;;;;;;;;;1043610;28;19931;-77
2023/01/13 00:25:51;;;;;;;;;;;;;;;;;;1043352;28;19955;-76
2023/01/13 00:26:22;;;;;;;;;;;;;;;;;;1043700;28;20625;-76
2023/01/13 00:26:52;;;;;;;;;;;;;;;;;;1039270;28;19909;-76
2023/01/13 00:27:24;;;;;;;;;;;;;;;;;;1039728;28;19916;-77
2023/01/13 00:27:55;;;;;;;;;;;;;;;;;;1043258;28;19909;-76
2023/01/13 00:28:25;;;;;;;;;;;;;;;;;;1043619;28;19905;-77
2023/01/13 00:28:57;;;;;;;;;;;;;;;;;;1043962;28;19999;-76
2023/01/13 00:29:28;;;;;;;;;;;;;;;;;;1047884;28;19909;-75
2023/01/13 00:29:58;;;;;;;;;;;;;;;;;;1043128;28;19951;-76
2023/01/13 00:30:29;;;;;;;;;;;;;;;;;;1043686;28;19912;-75
2023/01/13 00:31:00;;;;;;;;;;;;;;;;;;1043004;28;20592;-76
2023/01/13 00:31:31;;;;;;;;;;;;;;;;;;1043746;28;19909;-76
2023/01/13 00:32:02;;;;;;;;;;;;;;;;;;1042824;28;19999;-76
2023/01/13 00:32:33;;;;;;;;;;;;;;;;;;1039652;28;19910;-77
2023/01/13 00:33:04;;;;;;;;;;;;;;;;;;1043365;28;20604;-75
2023/01/13 00:33:35;;;;;;;;;;;;;;;;;;1043760;28;20552;-76
2023/01/13 00:34:05;;;;;;;;;;;;;;;;;;1039393;28;19916;-76
2023/01/13 00:34:36;;;;;;;;;;;;;;;;;;1039229;28;20368;-76
2023/01/13 00:35:07;;;;;;;;;;;;;;;;;;1039415;28;19909;-76
2023/01/13 00:35:38;;;;;;;;;;;;;;;;;;1039198;28;19916;-76
2023/01/13 00:36:09;;;;;;;;;;;;;;;;;;1042494;28;19944;-76
2023/01/13 00:36:40;;;;;;;;;;;;;;;;;;1043633;28;19909;-75
2023/01/13 00:37:13;;;;;;;;;;;;;;;;;;1043282;28;20441;-76
2023/01/13 00:37:44;;;;;;;;;;;;;;;;;;1043360;28;19912;-76
2023/01/13 00:38:15;;;;;;;;;;;;;;;;;;1042862;28;19958;-76
2023/01/13 00:38:46;;;;;;;;;;;;;;;;;;1039291;28;20369;-76
2023/01/13 00:39:17;;;;;;;;;;;;;;;;;;1043312;28;19920;-77
2023/01/13 00:39:48;;;;;;;;;;;;;;;;;;1043290;28;19936;-76
2023/01/13 00:40:19;;;;;;;;;;;;;;;;;;1043540;28;19975;-76
2023/01/13 00:40:50;;;;;;;;;;;;;;;;;;1039414;28;19913;-76
2023/01/13 00:41:20;;;;;;;;;;;;;;;;;;1039360;28;19924;-76
2023/01/13 00:43:31;;;;;;;;;;;;;;;;;;1044011;28;19985;-76
2023/01/13 00:44:02;;;;;;;;;;;;;;;;;;1039071;28;19909;-76
2023/01/13 00:44:33;;;;;;;;;;;;;;;;;;1040745;28;20004;-76
2023/01/13 00:45:04;;;;;;;;;;;;;;;;;;1043396;28;19967;-76
2023/01/13 00:45:34;;;;;;;;;;;;;;;;;;1039637;28;20362;-75
2023/01/13 00:46:05;;;;;;;;;;;;;;;;;;1043331;28;19909;-76
2023/01/13 00:46:37;;;;;;;;;;;;;;;;;;1043588;28;20003;-75
2023/01/13 00:47:07;;;;;;;;;;;;;;;;;;1043309;28;19952;-76
2023/01/13 00:47:38;;;;;;;;;;;;;;;;;;1043451;28;19908;-76
2023/01/13 00:48:09;;;;;;;;;;;;;;;;;;1039114;28;19905;-76
2023/01/13 00:48:40;;;;;;;;;;;;;;;;;;1039299;28;20364;-76
2023/01/13 00:49:11;;;;;;;;;;;;;;;;;;1039455;28;19917;-77
2023/01/13 00:49:42;;;;;;;;;;;;;;;;;;1039063;28;19931;-76
2023/01/13 00:50:13;;;;;;;;;;;;;;;;;;1039512;28;19919;-75
2023/01/13 00:50:44;;;;;;;;;;;;;;;;;;1039343;28;20360;-77
2023/01/13 00:51:15;;;;;;;;;;;;;;;;;;1043764;28;19912;-76
2023/01/13 00:51:46;;;;;;;;;;;;;;;;;;1047657;28;19915;-77
2023/01/13 00:52:17;;;;;;;;;;;;;;;;;;1047966;28;19909;-76
2023/01/13 00:52:48;;;;;;;;;;;;;;;;;;1043277;28;19996;-76
2023/01/13 00:53:19;;;;;;;;;;;;;;;;;;1043180;28;20283;-77
2023/01/13 00:53:50;;;;;;;;;;;;;;;;;;1043329;28;19955;-76
2023/01/13 00:54:21;;;;;;;;;;;;;;;;;;1043489;28;19909;-76
2023/01/13 00:54:51;;;;;;;;;;;;;;;;;;1043433;28;19909;-76
2023/01/13 00:55:22;;;;;;;;;;;;;;;;;;1039119;28;19964;-76
2023/01/13 00:55:53;;;;;;;;;;;;;;;;;;1040114;28;19910;-77
2023/01/13 00:56:24;;;;;;;;;;;;;;;;;;1039152;28;19915;-78
2023/01/13 00:56:55;;;;;;;;;;;;;;;;;;1039558;28;20430;-77
2023/01/13 00:57:26;;;;;;;;;;;;;;;;;;1039270;28;19991;-76
2023/01/13 00:58:02;;;;;;;;;;;;;;;;;;1039568;28;19909;-76
2023/01/13 00:58:33;;;;;;;;;;;;;;;;;;1043808;28;20000;-77
2023/01/13 00:59:03;;;;;;;;;;;;;;;;;;1044373;28;19936;-77
2023/01/13 00:59:34;;;;;;;;;;;;;;;;;;1048181;28;19997;-77
2023/01/13 01:00:05;;;;;;;;;;;;;;;;;;1044522;28;20301;-77
2023/01/13 01:00:36;;;;;;;;;;;;;;;;;;1043403;28;19909;-77
2023/01/13 01:01:07;;;;;;;;;;;;;;;;;;1043426;28;20498;-76
2023/01/13 01:01:38;;;;;;;;;;;;;;;;;;1041623;28;19952;-76
2023/01/13 01:02:09;;;;;;;;;;;;;;;;;;1043409;28;20287;-76
2023/01/13 01:02:39;;;;;;;;;;;;;;;;;;1039065;28;19909;-76
2023/01/13 01:03:11;;;;;;;;;;;;;;;;;;1039415;28;19940;-77
2023/01/13 01:03:42;;;;;;;;;;;;;;;;;;1043241;28;19915;-77
2023/01/13 01:04:12;;;;;;;;;;;;;;;;;;1043151;28;19909;-75
2023/01/13 01:04:43;;;;;;;;;;;;;;;;;;1043268;28;19913;-76
2023/01/13 01:05:14;;;;;;;;;;;;;;;;;;1043288;28;19919;-76
2023/01/13 01:05:45;;;;;;;;;;;;;;;;;;1043145;28;19920;-76
2023/01/13 01:06:16;;;;;;;;;;;;;;;;;;1043260;28;20531;-76
2023/01/13 01:06:47;;;;;;;;;;;;;;;;;;1043057;28;20298;-76
2023/01/13 01:07:18;;;;;;;;;;;;;;;;;;1042892;28;19957;-76
2023/01/13 01:07:49;;;;;;;;;;;;;;;;;;1039038;28;19917;-75
2023/01/13 01:08:19;;;;;;;;;;;;;;;;;;1039206;28;19915;-76
2023/01/13 01:08:50;;;;;;;;;;;;;;;;;;1039091;28;19964;-75
2023/01/13 01:09:21;;;;;;;;;;;;;;;;;;1043074;28;19962;-76
2023/01/13 01:09:52;;;;;;;;;;;;;;;;;;1043030;28;19936;-76
2023/01/13 01:10:23;;;;;;;;;;;;;;;;;;1043162;28;19915;-77
2023/01/13 01:10:54;;;;;;;;;;;;;;;;;;1043435;28;20475;-75
2023/01/13 01:11:25;;;;;;;;;;;;;;;;;;1043219;28;20571;-75
2023/01/13 01:11:56;;;;;;;;;;;;;;;;;;1042824;28;19947;-76
2023/01/13 01:12:26;;;;;;;;;;;;;;;;;;1043140;28;19936;-75
2023/01/13 01:12:57;;;;;;;;;;;;;;;;;;1043270;28;20003;-77
2023/01/13 01:13:28;;;;;;;;;;;;;;;;;;1047566;28;19919;-75
2023/01/13 01:13:59;;;;;;;;;;;;;;;;;;1047334;28;20348;-76
2023/01/13 01:14:30;;;;;;;;;;;;;;;;;;1043061;28;20003;-77
2023/01/13 01:15:01;;;;;;;;;;;;;;;;;;1042877;28;20441;-76
2023/01/13 01:15:32;;;;;;;;;;;;;;;;;;1043347;28;20012;-75
2023/01/13 01:16:05;;;;;;;;;;;;;;;;;;1043153;28;19909;-76
2023/01/13 01:16:36;;;;;;;;;;;;;;;;;;1042161;28;19909;-77
2023/01/13 01:17:07;;;;;;;;;;;;;;;;;;1038878;28;19991;-76
2023/01/13 01:17:38;;;;;;;;;;;;;;;;;;1034844;28;19929;-75
2023/01/13 01:18:09;;;;;;;;;;;;;;;;;;1035008;28;19918;-76
2023/01/13 01:18:40;;;;;;;;;;;;;;;;;;1039120;28;20339;-77
2023/01/13 01:19:11;;;;;;;;;;;;;;;;;;1043314;28;20352;-75
2023/01/13 01:19:42;;;;;;;;;;;;;;;;;;1047807;28;20025;-77
2023/01/13 01:20:13;;;;;;;;;;;;;;;;;;1043056;28;20441;-75
2023/01/13 01:20:43;;;;;;;;;;;;;;;;;;1043260;28;19904;-77
2023/01/13 01:21:14;;;;;;;;;;;;;;;;;;1043406;28;20277;-75
2023/01/13 01:21:45;;;;;;;;;;;;;;;;;;1043208;28;20363;-76
2023/01/13 01:22:16;;;;;;;;;;;;;;;;;;1043012;28;19915;-77
2023/01/13 01:22:47;;;;;;;;;;;;;;;;;;1043638;28;20283;-75
2023/01/13 01:23:18;;;;;;;;;;;;;;;;;;1043510;28;19923;-75
2023/01/13 01:23:49;;;;;;;;;;;;;;;;;;1047803;28;20390;-76
2023/01/13 01:24:20;;;;;;;;;;;;;;;;;;1047394;28;19920;-76
2023/01/13 01:24:51;;;;;;;;;;;;;;;;;;1047640;28;19913;-76
2023/01/13 01:25:21;;;;;;;;;;;;;;;;;;1047316;28;20007;-77
2023/01/13 01:25:52;;;;;;;;;;;;;;;;;;1042929;28;19917;-77
2023/01/13 01:26:23;;;;;;;;;;;;;;;;;;1042965;28;19909;-76
2023/01/13 01:26:54;;;;;;;;;;;;;;;;;;1043085;28;19916;-76
2023/01/13 01:27:25;;;;;;;;;;;;;;;;;;1042859;28;20311;-77
2023/01/13 01:27:56;;;;;;;;;;;;;;;;;;1043090;28;19909;-75
2023/01/13 01:28:27;;;;;;;;;;;;;;;;;;1043181;28;19908;-76
2023/01/13 01:28:57;;;;;;;;;;;;;;;;;;1038918;28;20712;-77
2023/01/13 01:29:28;;;;;;;;;;;;;;;;;;1042928;28;19908;-76
2023/01/13 01:29:59;;;;;;;;;;;;;;;;;;1042912;28;19904;-77
2023/01/13 01:30:30;;;;;;;;;;;;;;;;;;1043175;28;20000;-76
2023/01/13 01:31:01;;;;;;;;;;;;;;;;;;1043226;28;19909;-76
2023/01/13 01:31:32;;;;;;;;;;;;;;;;;;1047508;28;20015;-76
2023/01/13 01:32:03;;;;;;;;;;;;;;;;;;1046760;28;19913;-76
2023/01/13 01:32:34;;;;;;;;;;;;;;;;;;1047539;28;20038;-76
2023/01/13 01:33:05;;;;;;;;;;;;;;;;;;1047142;28;20049;-75
2023/01/13 01:33:36;;;;;;;;;;;;;;;;;;1047527;28;19912;-76
2023/01/13 01:34:06;;;;;;;;;;;;;;;;;;1047540;28;20530;-75
2023/01/13 01:34:40;;;;;;;;;;;;;;;;;;1042848;28;19992;-76
2023/01/13 01:35:11;;;;;;;;;;;;;;;;;;1042930;28;20010;-77
2023/01/13 01:35:42;;;;;;;;;;;;;;;;;;1043031;28;19909;-77
2023/01/13 01:36:13;;;;;;;;;;;;;;;;;;1043497;28;19909;-77
2023/01/13 01:36:44;;;;;;;;;;;;;;;;;;1043029;28;19912;-76
2023/01/13 01:37:15;;;;;;;;;;;;;;;;;;1042914;28;19909;-76
2023/01/13 01:37:45;;;;;;;;;;;;;;;;;;1043091;28;20532;-76
2023/01/13 01:38:16;;;;;;;;;;;;;;;;;;1042864;28;19909;-77
2023/01/13 01:38:47;;;;;;;;;;;;;;;;;;1042957;28;20383;-77
2023/01/13 01:39:18;;;;;;;;;;;;;;;;;;1042931;28;20379;-77
2023/01/13 01:39:49;;;;;;;;;;;;;;;;;;1043141;28;19913;-78
2023/01/13 01:40:20;;;;;;;;;;;;;;;;;;1042979;28;19944;-77
2023/01/13 01:40:51;;;;;;;;;;;;;;;;;;1039257;28;20055;-76
2023/01/13 01:41:22;;;;;;;;;;;;;;;;;;1041957;28;19919;-77
2023/01/13 01:44:01;;;;;;;;;;;;;;;;;;1021680;29;19966;-75
2023/01/13 01:44:32;;;;;;;;;;;;;;;;;;1022608;29;19981;-76
2023/01/13 01:45:03;;;;;;;;;;;;;;;;;;1042077;28;19996;-76
2023/01/13 01:45:34;;;;;;;;;;;;;;;;;;1039202;28;19936;-77
2023/01/13 01:46:05;;;;;;;;;;;;;;;;;;1038945;28;19909;-76
2023/01/13 01:46:36;;;;;;;;;;;;;;;;;;1039010;28;20034;-76
2023/01/13 01:47:06;;;;;;;;;;;;;;;;;;1038993;28;19946;-76
2023/01/13 01:47:37;;;;;;;;;;;;;;;;;;1039114;28;19940;-76
2023/01/13 01:48:08;;;;;;;;;;;;;;;;;;1043096;28;19913;-75
2023/01/13 01:48:39;;;;;;;;;;;;;;;;;;1043105;28;19908;-76
2023/01/13 01:49:10;;;;;;;;;;;;;;;;;;1043143;28;19909;-76
2023/01/13 01:49:41;;;;;;;;;;;;;;;;;;1043061;28;20394;-77
2023/01/13 01:50:12;;;;;;;;;;;;;;;;;;1043288;28;20376;-77
2023/01/13 01:50:43;;;;;;;;;;;;;;;;;;1043172;28;20054;-75
2023/01/13 01:51:13;;;;;;;;;;;;;;;;;;1043394;28;20692;-77
2023/01/13 01:51:44;;;;;;;;;;;;;;;;;;1044285;28;19909;-76
2023/01/13 01:52:15;;;;;;;;;;;;;;;;;;1045409;28;19909;-78
2023/01/13 01:52:46;;;;;;;;;;;;;;;;;;1047754;28;19970;-77
2023/01/13 01:53:17;;;;;;;;;;;;;;;;;;1043118;28;19909;-78
2023/01/13 01:53:48;;;;;;;;;;;;;;;;;;1043004;28;19909;-77
2023/01/13 01:54:19;;;;;;;;;;;;;;;;;;1043241;28;20364;-76
2023/01/13 01:54:50;;;;;;;;;;;;;;;;;;1043281;28;19916;-77
2023/01/13 01:55:20;;;;;;;;;;;;;;;;;;1047828;28;19912;-77
2023/01/13 01:55:51;;;;;;;;;;;;;;;;;;1047685;28;19931;-77
2023/01/13 01:56:22;;;;;;;;;;;;;;;;;;1042941;28;19999;-77
2023/01/13 01:56:53;;;;;;;;;;;;;;;;;;1042973;28;19909;-77
2023/01/13 01:57:24;;;;;;;;;;;;;;;;;;1043189;28;19916;-76
2023/01/13 01:57:55;;;;;;;;;;;;;;;;;;1043129;28;20501;-76
2023/01/13 01:58:26;;;;;;;;;;;;;;;;;;1039219;28;20076;-77
2023/01/13 01:58:57;;;;;;;;;;;;;;;;;;1043155;28;20023;-75
2023/01/13 01:59:27;;;;;;;;;;;;;;;;;;1043302;28;20407;-75
2023/01/13 01:59:59;;;;;;;;;;;;;;;;;;1042946;28;19984;-77
2023/01/13 02:00:30;;;;;;;;;;;;;;;;;;1039117;28;19937;-77
2023/01/13 02:01:01;;;;;;;;;;;;;;;;;;1042947;28;19909;-76
2023/01/13 02:01:32;;;;;;;;;;;;;;;;;;1042460;28;19913;-75
2023/01/13 02:02:03;;;;;;;;;;;;;;;;;;1039265;28;19941;-77
2023/01/13 02:02:34;;;;;;;;;;;;;;;;;;1043300;28;20059;-76
2023/01/13 02:03:05;;;;;;;;;;;;;;;;;;1042998;28;19999;-76
2023/01/13 02:03:35;;;;;;;;;;;;;;;;;;1043354;28;19916;-77
2023/01/13 02:04:06;;;;;;;;;;;;;;;;;;1043059;28;20682;-76
2023/01/13 02:04:37;;;;;;;;;;;;;;;;;;1043077;28;19913;-76
2023/01/13 02:05:08;;;;;;;;;;;;;;;;;;1043193;28;19912;-75
2023/01/13 02:05:40;;;;;;;;;;;;;;;;;;1043174;28;19951;-76
2023/01/13 02:06:10;;;;;;;;;;;;;;;;;;1039269;28;20283;-75
2023/01/13 02:06:41;;;;;;;;;;;;;;;;;;1042906;28;20408;-76
2023/01/13 02:07:12;;;;;;;;;;;;;;;;;;1043302;28;19912;-75
2023/01/13 02:07:43;;;;;;;;;;;;;;;;;;1043142;28;19921;-75
2023/01/13 02:08:14;;;;;;;;;;;;;;;;;;1039377;28;19919;-77
2023/01/13 02:08:45;;;;;;;;;;;;;;;;;;1043036;28;20426;-77
2023/01/13 02:09:16;;;;;;;;;;;;;;;;;;1043100;28;19913;-77
2023/01/13 02:09:47;;;;;;;;;;;;;;;;;;1043188;28;20729;-77
2023/01/13 02:10:18;;;;;;;;;;;;;;;;;;1043271;28;19958;-77
2023/01/13 02:10:49;;;;;;;;;;;;;;;;;;1042649;28;19913;-76
2023/01/13 02:12:28;;;;;;;;;;;;;;;;;;1039401;28;19944;-76
2023/01/13 02:12:28;;;;;;;;;;;;;;;;;;1043247;28;20245;-76
2023/01/13 02:12:59;;;;;;;;;;;;;;;;;;1042916;28;19913;-77
2023/01/13 02:13:30;;;;;;;;;;;;;;;;;;1043164;28;19913;-76
2023/01/13 02:14:01;;;;;;;;;;;;;;;;;;1042744;28;19956;-76
2023/01/13 02:14:32;;;;;;;;;;;;;;;;;;1043640;28;20441;-77
2023/01/13 02:15:03;;;;;;;;;;;;;;;;;;1042850;28;19909;-76
2023/01/13 02:15:34;;;;;;;;;;;;;;;;;;1043199;28;19916;-77
2023/01/13 02:16:05;;;;;;;;;;;;;;;;;;1042843;28;20724;-76
2023/01/13 02:16:35;;;;;;;;;;;;;;;;;;1043115;28;19912;-76
2023/01/13 02:17:06;;;;;;;;;;;;;;;;;;1042755;28;19991;-76
2023/01/13 02:17:38;;;;;;;;;;;;;;;;;;1039402;28;19920;-76
2023/01/13 02:18:09;;;;;;;;;;;;;;;;;;1038822;28;19920;-77
2023/01/13 02:18:39;;;;;;;;;;;;;;;;;;1039233;28;19913;-77
2023/01/13 02:19:10;;;;;;;;;;;;;;;;;;1042925;28;19962;-76
2023/01/13 02:19:41;;;;;;;;;;;;;;;;;;1042985;28;19913;-76
2023/01/13 02:20:12;;;;;;;;;;;;;;;;;;1042945;28;19916;-77
2023/01/13 02:20:43;;;;;;;;;;;;;;;;;;1043035;28;20331;-76
2023/01/13 02:21:14;;;;;;;;;;;;;;;;;;1038971;28;19935;-76
2023/01/13 02:21:45;;;;;;;;;;;;;;;;;;1039111;28;19913;-76
2023/01/13 02:22:16;;;;;;;;;;;;;;;;;;1043203;28;19940;-76
2023/01/13 02:22:47;;;;;;;;;;;;;;;;;;1043387;28;19908;-78
2023/01/13 02:24:57;;;;;;;;;;;;;;;;;;1047745;28;19915;-77
2023/01/13 02:25:28;;;;;;;;;;;;;;;;;;1047520;28;19943;-76
2023/01/13 02:25:58;;;;;;;;;;;;;;;;;;1043012;28;20626;-77
2023/01/13 02:26:29;;;;;;;;;;;;;;;;;;1043332;28;19915;-77
2023/01/13 02:27:00;;;;;;;;;;;;;;;;;;1043008;28;19909;-78
2023/01/13 02:27:31;;;;;;;;;;;;;;;;;;1043120;28;19909;-76
2023/01/13 02:28:02;;;;;;;;;;;;;;;;;;1043076;28;19988;-78
2023/01/13 02:28:33;;;;;;;;;;;;;;;;;;1043478;28;20346;-76
2023/01/13 02:31:42;;;;;;;;;;;;;;;;;;1043631;28;19912;-77
2023/01/13 02:32:13;;;;;;;;;;;;;;;;;;1043031;28;19908;-76
2023/01/13 02:32:44;;;;;;;;;;;;;;;;;;1045186;28;19909;-77
2023/01/13 02:33:15;;;;;;;;;;;;;;;;;;1047528;28;19919;-77
2023/01/13 02:33:46;;;;;;;;;;;;;;;;;;1047699;28;19909;-75
2023/01/13 02:34:16;;;;;;;;;;;;;;;;;;1047461;28;19951;-76
2023/01/13 02:34:47;;;;;;;;;;;;;;;;;;1042898;28;20490;-77
2023/01/13 02:35:18;;;;;;;;;;;;;;;;;;1043247;28;19908;-77
2023/01/13 02:35:49;;;;;;;;;;;;;;;;;;1042868;28;20000;-77
2023/01/13 02:36:20;;;;;;;;;;;;;;;;;;1043079;28;19909;-76
2023/01/13 02:36:51;;;;;;;;;;;;;;;;;;1043118;28;19936;-76
2023/01/13 02:37:22;;;;;;;;;;;;;;;;;;1043240;28;20028;-77
2023/01/13 02:37:53;;;;;;;;;;;;;;;;;;1043317;28;19952;-76
2023/01/13 02:38:23;;;;;;;;;;;;;;;;;;1043054;28;19909;-76
2023/01/13 02:38:54;;;;;;;;;;;;;;;;;;1042932;28;19958;-77
2023/01/13 02:39:25;;;;;;;;;;;;;;;;;;1042968;28;20027;-77
2023/01/13 02:39:56;;;;;;;;;;;;;;;;;;1042798;28;19944;-77
2023/01/13 02:40:27;;;;;;;;;;;;;;;;;;1043013;28;19920;-77
2023/01/13 02:44:05;;;;;;;;;;;;;;;;;;1043112;28;19967;-76
2023/01/13 02:44:18;;;;;;;;;;;;;;;;;;1047847;28;19999;-77
2023/01/13 02:44:49;;;;;;;;;;;;;;;;;;1047384;28;19942;-77
2023/01/13 02:45:20;;;;;;;;;;;;;;;;;;1043011;28;19956;-76
2023/01/13 02:45:51;;;;;;;;;;;;;;;;;;1043222;28;19913;-77
2023/01/13 02:46:22;;;;;;;;;;;;;;;;;;1042883;28;20004;-77
2023/01/13 02:46:52;;;;;;;;;;;;;;;;;;1042186;28;19999;-76
2023/01/13 02:47:23;;;;;;;;;;;;;;;;;;1047342;28;20449;-76
2023/01/13 02:47:54;;;;;;;;;;;;;;;;;;1042970;28;19919;-77
2023/01/13 02:48:25;;;;;;;;;;;;;;;;;;1043082;28;19913;-77
2023/01/13 02:48:56;;;;;;;;;;;;;;;;;;1038865;28;20063;-77
2023/01/13 02:49:27;;;;;;;;;;;;;;;;;;1039281;28;19920;-77
2023/01/13 02:49:58;;;;;;;;;;;;;;;;;;1042997;28;19948;-77
2023/01/13 02:50:29;;;;;;;;;;;;;;;;;;1043314;28;20775;-77
2023/01/13 02:50:59;;;;;;;;;;;;;;;;;;1043028;28;20719;-78
2023/01/13 02:51:30;;;;;;;;;;;;;;;;;;1043263;28;19917;-77
2023/01/13 02:52:04;;;;;;;;;;;;;;;;;;1038796;28;20292;-77
2023/01/13 02:52:35;;;;;;;;;;;;;;;;;;1039341;28;19913;-77
2023/01/13 02:53:06;;;;;;;;;;;;;;;;;;1043252;28;19919;-77
2023/01/13 02:53:37;;;;;;;;;;;;;;;;;;1039019;28;20626;-77
2023/01/13 02:54:08;;;;;;;;;;;;;;;;;;1039003;28;19913;-77
2023/01/13 02:54:39;;;;;;;;;;;;;;;;;;1043319;28;20276;-76
2023/01/13 02:55:09;;;;;;;;;;;;;;;;;;1038770;28;19968;-76
2023/01/13 02:55:40;;;;;;;;;;;;;;;;;;1038949;28;19920;-77
2023/01/13 02:56:11;;;;;;;;;;;;;;;;;;1038964;28;19956;-76
2023/01/13 02:56:42;;;;;;;;;;;;;;;;;;1038883;28;20003;-77
2023/01/13 02:57:13;;;;;;;;;;;;;;;;;;1038293;28;19913;-77
2023/01/13 02:57:44;;;;;;;;;;;;;;;;;;1039161;28;19913;-76
2023/01/13 02:58:15;;;;;;;;;;;;;;;;;;1043083;28;19913;-77
2023/01/13 02:58:45;;;;;;;;;;;;;;;;;;1043507;28;19913;-77
2023/01/13 02:59:16;;;;;;;;;;;;;;;;;;1042940;28;19944;-77
2023/01/13 02:59:47;;;;;;;;;;;;;;;;;;1043859;28;20419;-77
2023/01/13 03:00:18;;;;;;;;;;;;;;;;;;1043529;28;20000;-76
2023/01/13 03:00:49;;;;;;;;;;;;;;;;;;1043994;28;19990;-78
2023/01/13 03:01:20;;;;;;;;;;;;;;;;;;1043991;28;20721;-76
2023/01/13 03:01:51;;;;;;;;;;;;;;;;;;1048373;28;20438;-76
2023/01/13 03:02:22;;;;;;;;;;;;;;;;;;1043596;28;19920;-76
2023/01/13 03:02:52;;;;;;;;;;;;;;;;;;1043976;28;19915;-76
2023/01/13 03:03:23;;;;;;;;;;;;;;;;;;1043716;28;19913;-76
2023/01/13 03:03:54;;;;;;;;;;;;;;;;;;1044082;28;20360;-76
2023/01/13 03:04:25;;;;;;;;;;;;;;;;;;1048248;28;19908;-76
2023/01/13 03:04:56;;;;;;;;;;;;;;;;;;1048444;28;20282;-77
2023/01/13 03:05:27;;;;;;;;;;;;;;;;;;1048315;28;19976;-77
2023/01/13 03:05:58;;;;;;;;;;;;;;;;;;1048239;28;19997;-76
2023/01/13 03:06:29;;;;;;;;;;;;;;;;;;1048383;28;19909;-77
2023/01/13 03:06:59;;;;;;;;;;;;;;;;;;1043356;28;19963;-77
2023/01/13 03:07:30;;;;;;;;;;;;;;;;;;1043972;28;19908;-75
2023/01/13 03:08:01;;;;;;;;;;;;;;;;;;1043731;28;20021;-77
2023/01/13 03:08:32;;;;;;;;;;;;;;;;;;1043872;28;19913;-77
2023/01/13 03:09:03;;;;;;;;;;;;;;;;;;1043738;28;20003;-78
2023/01/13 03:09:34;;;;;;;;;;;;;;;;;;1044188;28;19905;-76
2023/01/13 03:10:05;;;;;;;;;;;;;;;;;;1048140;28;19950;-76
2023/01/13 03:10:36;;;;;;;;;;;;;;;;;;1047958;28;20000;-77
2023/01/13 03:11:07;;;;;;;;;;;;;;;;;;1048384;28;19908;-77
2023/01/13 03:11:37;;;;;;;;;;;;;;;;;;1043583;28;19923;-77
2023/01/13 03:12:08;;;;;;;;;;;;;;;;;;1043641;28;19908;-77
2023/01/13 03:12:39;;;;;;;;;;;;;;;;;;1039635;28;20328;-77
2023/01/13 03:13:10;;;;;;;;;;;;;;;;;;1040070;28;19975;-77
2023/01/13 03:13:41;;;;;;;;;;;;;;;;;;1043675;28;19909;-76
2023/01/13 03:14:12;;;;;;;;;;;;;;;;;;1044304;28;20063;-76
2023/01/13 03:14:43;;;;;;;;;;;;;;;;;;1048003;28;19909;-77
2023/01/13 03:15:14;;;;;;;;;;;;;;;;;;1043979;28;19963;-76
2023/01/13 03:15:44;;;;;;;;;;;;;;;;;;1043755;28;20378;-76
2023/01/13 03:16:15;;;;;;;;;;;;;;;;;;1043661;28;20011;-77
2023/01/13 03:16:46;;;;;;;;;;;;;;;;;;1043753;28;20416;-77
2023/01/13 03:17:17;;;;;;;;;;;;;;;;;;1043478;28;19912;-76
2023/01/13 03:17:48;;;;;;;;;;;;;;;;;;1039456;28;20390;-77
2023/01/13 03:18:19;;;;;;;;;;;;;;;;;;1039738;28;20016;-76
2023/01/13 03:18:50;;;;;;;;;;;;;;;;;;1039270;28;19925;-77
2023/01/13 03:19:22;;;;;;;;;;;;;;;;;;1039953;28;20314;-76
2023/01/13 03:19:53;;;;;;;;;;;;;;;;;;1040049;28;19971;-77
2023/01/13 03:20:24;;;;;;;;;;;;;;;;;;1039594;28;19916;-77
2023/01/13 03:20:55;;;;;;;;;;;;;;;;;;1039308;28;20560;-77
2023/01/13 03:21:26;;;;;;;;;;;;;;;;;;1039999;28;20031;-75
2023/01/13 03:21:56;;;;;;;;;;;;;;;;;;1044053;28;19943;-77
2023/01/13 03:22:27;;;;;;;;;;;;;;;;;;1048117;28;20382;-77
2023/01/13 03:22:58;;;;;;;;;;;;;;;;;;1048124;28;20259;-77
2023/01/13 03:23:29;;;;;;;;;;;;;;;;;;1043817;28;19953;-76
2023/01/13 03:24:01;;;;;;;;;;;;;;;;;;1043674;28;19920;-76
2023/01/13 03:24:31;;;;;;;;;;;;;;;;;;1039658;28;20419;-77
2023/01/13 03:25:02;;;;;;;;;;;;;;;;;;1039997;28;20354;-77
2023/01/13 03:25:34;;;;;;;;;;;;;;;;;;1043799;28;19913;-77
2023/01/13 03:26:05;;;;;;;;;;;;;;;;;;1044244;28;20020;-75
2023/01/13 03:26:36;;;;;;;;;;;;;;;;;;1048188;28;19912;-76
2023/01/13 03:27:07;;;;;;;;;;;;;;;;;;1043756;28;19971;-76
2023/01/13 03:27:38;;;;;;;;;;;;;;;;;;1043678;28;19913;-76
2023/01/13 03:28:09;;;;;;;;;;;;;;;;;;1043598;28;20778;-77
2023/01/13 03:28:40;;;;;;;;;;;;;;;;;;1043900;28;19917;-77
2023/01/13 03:29:11;;;;;;;;;;;;;;;;;;1043497;28;19913;-77
2023/01/13 03:29:41;;;;;;;;;;;;;;;;;;1043663;28;19940;-76
2023/01/13 03:30:12;;;;;;;;;;;;;;;;;;1043749;28;19939;-76
2023/01/13 03:30:43;;;;;;;;;;;;;;;;;;1039703;28;19921;-76
2023/01/13 03:31:14;;;;;;;;;;;;;;;;;;1039704;28;19967;-77
2023/01/13 03:31:45;;;;;;;;;;;;;;;;;;1039556;28;19944;-77
2023/01/13 03:32:16;;;;;;;;;;;;;;;;;;1039519;28;20276;-77
2023/01/13 03:32:47;;;;;;;;;;;;;;;;;;1043611;28;20030;-77
2023/01/13 03:33:18;;;;;;;;;;;;;;;;;;1043892;28;19985;-77
2023/01/13 03:33:48;;;;;;;;;;;;;;;;;;1044144;28;20342;-76
2023/01/13 03:34:19;;;;;;;;;;;;;;;;;;1048071;28;19912;-76
2023/01/13 03:34:50;;;;;;;;;;;;;;;;;;1043977;28;19936;-77
2023/01/13 03:35:21;;;;;;;;;;;;;;;;;;1043585;28;20043;-78
2023/01/13 03:35:52;;;;;;;;;;;;;;;;;;1043737;28;19909;-77
2023/01/13 03:36:24;;;;;;;;;;;;;;;;;;1043868;28;20440;-77
2023/01/13 03:36:55;;;;;;;;;;;;;;;;;;1044295;28;19979;-77
2023/01/13 03:37:26;;;;;;;;;;;;;;;;;;1048380;28;20054;-77
2023/01/13 03:37:57;;;;;;;;;;;;;;;;;;1043454;28;19912;-76
2023/01/13 03:38:28;;;;;;;;;;;;;;;;;;1043869;28;19908;-77
2023/01/13 03:38:58;;;;;;;;;;;;;;;;;;1043466;28;19968;-76
2023/01/13 03:39:29;;;;;;;;;;;;;;;;;;1043901;28;19924;-76
2023/01/13 03:40:00;;;;;;;;;;;;;;;;;;1043315;28;19958;-77
2023/01/13 03:40:31;;;;;;;;;;;;;;;;;;1039625;28;19912;-77
2023/01/13 03:41:02;;;;;;;;;;;;;;;;;;1035018;28;19914;-77
2023/01/13 03:41:33;;;;;;;;;;;;;;;;;;1035852;28;19913;-75
2023/01/13 03:42:04;;;;;;;;;;;;;;;;;;1039455;28;20076;-76
2023/01/13 03:42:35;;;;;;;;;;;;;;;;;;1044060;28;19920;-76
2023/01/13 03:44:45;;;;;;;;;;;;;;;;;;1043876;28;20275;-76